Steptoe Valley WMA, Nevada Weather observations

Data are for 10 minute period ending at time listed.
 Day   Time   Solar   Ave.   Ave.  Ave.  Vector  Max.   Baro.   Total    
  of    of     Rad.   Air    Rel.  Wind   Wind   Wind  Press.  Precip.   
Year   Day            Temp.  Hum.  Speed  Dir.   Gust                    
2015   (PST)  Kw/m2    F      %     mph   deg.    mph    mb.     in.     
-------------------------------------------------------------------------
 187   11:00   0.15   73.7    28    2.5    59     5.5   807.6    0.00 
 187   11:10   0.16   74.1    26    2.9    58     5.3   807.5    0.00 
 187   11:20   0.22   74.8    27    1.8    44     4.9   807.5    0.00 
 187   11:30   0.24   75.0    26    2.2    41     4.6   807.5    0.00 
 187   11:40   0.14   75.3    27    0.9   335     2.6   807.5    0.00 
 187   11:50   0.12   73.3    44    3.1   278     5.6   807.5    0.00 
 187   12:00   0.16   70.3    41    6.1   253    11.8   807.5    0.00 
 187   12:10   0.25   70.6    38    6.7   240    17.0   807.5    0.00 
 187   12:20   0.27   71.5    38    6.1   221    12.8   807.5    0.00 
 187   12:30   0.21   71.6    36    6.6   232    12.4   807.4    0.00 
 187   12:40   0.14   71.5    34    3.7   241     6.7   807.5    0.00 
 187   12:50   0.14   71.5    34    5.3   312    10.4   807.5    0.00 
 187   13:00   0.15   70.9    34    5.6   278    10.8   807.3    0.00 
 187   13:10   0.22   69.9    38    7.3   198    11.0   807.0    0.00 
 187   13:20   0.18   71.3    34    4.1   190     8.4   807.2    0.00 
 187   13:30   0.17   70.4    40    9.3   162    15.3   807.5    0.00 
 187   13:40   0.31   70.6    42    6.7   150    13.0   807.4    0.00 
 187   13:50   0.85   73.6    37   10.5   169    16.5   806.7    0.00 
 187   14:00   0.38   73.9    36   10.7   175    15.2   807.0    0.00 
 187   14:10   0.31   71.7    40   11.8   172    17.2   807.2    0.00 
 187   14:20   0.31   71.7    38   10.3   210    17.2   807.1    0.00 
 187   14:30   0.20   69.1    43   10.7   214    17.8   807.0    0.00 
 187   14:40   0.13   67.9    45    6.9   203    11.8   807.0    0.00 
 187   14:50   0.09   67.9    45    4.3   168     8.6   807.0    0.00 
 187   15:00   0.08   68.8    39    6.7   149    13.7   807.1    0.00 
 187   15:10   0.09   68.9    39   11.2   143    18.7   807.0    0.00 
 187   15:20   0.09   68.1    41   11.9   150    17.7   806.8    0.00 
 187   15:30   0.09   67.7    40   11.9   153    18.3   806.9    0.00 
 187   15:40   0.09   68.2    41   10.5   150    16.3   806.8    0.00 
 187   15:50   0.09   68.5    43    9.6   150    14.6   806.7    0.00 
 187   16:00   0.09   68.1    42    9.9   166    14.9   806.6    0.00 
 187   16:10   0.10   67.2    44    7.3   178    14.8   806.7    0.00 
 187   16:20   0.11   66.1    50    3.7   189     6.4   806.7    0.00 
 187   16:30   0.11   65.9    53    2.8   195     4.8   806.6    0.00 
 187   16:40   0.09   65.9    53    0.6   150     2.8   806.7    0.00 
 187   16:50   0.09   66.6    51    0.1   333     0.7   806.7    0.00 
 187   17:00   0.09   66.7    50    2.0     1     3.7   806.5    0.00 
 187   17:10   0.10   67.7    43    2.1    90     5.3   806.3    0.00 
 187   17:20   0.10   68.7    40    1.6   124     4.9   806.3    0.00 
 187   17:30   0.10   69.0    42    3.4   351     7.1   806.4    0.00 
 187   17:40   0.10   67.8    47    2.5     5     4.2   806.4    0.00 
 187   17:50   0.11   67.7    52    2.6   323     4.1   806.4    0.00 
 187   18:00   0.20   68.0    52    3.5   319     6.3   806.4    0.00 
 187   18:10   0.15   68.8    50    4.6   326     6.6   806.4    0.00 
 187   18:20   0.12   68.0    50    4.5   321     7.1   806.4    0.00 
 187   18:30   0.06   67.1    52    1.9   327     4.5   806.3    0.00 
 187   18:40   0.07   65.5    57    3.4   178     4.8   806.1    0.00 
 187   18:50   0.04   64.2    59    3.0   175     3.7   806.0    0.00 
 187   19:00   0.02   64.2    53    0.7   160     2.4   806.0    0.00 
 187   19:10   0.01   64.3    49    0.0   182     1.0   805.9    0.00 
 187   19:20   0.00   59.3    63    1.8   153     2.9   805.7    0.00 
 187   19:30   0.00   60.3    51    4.9   104     7.1   805.7    0.00 
 187   19:40   0.00   59.7    52    5.7    97     7.6   805.8    0.00 
 187   19:50   0.00   58.8    56    0.9    89     4.7   806.0    0.00 
 187   20:00   0.00   57.4    57    1.5    12     2.9   806.1    0.00 
 187   20:10   0.00   54.7    63    1.9   358     3.2   806.3    0.00 
 187   20:20   0.00   57.3    58    3.3    34     5.2   806.4    0.00 
 187   20:30   0.00   60.6    53    2.3    81     4.5   806.5    0.00 
 187   20:40   0.00   54.9    65    1.8   153     3.2   806.8    0.00 
 187   20:50   0.00   54.5    68    1.4   165     2.2   806.9    0.00 
 187   21:00   0.00   54.3    70    2.2   166     3.2   807.1    0.00 
 187   21:10   0.00   55.4    65    1.4   165     3.5   807.3    0.00 
 187   21:20   0.00   56.5    60    1.3   170     3.7   807.3    0.00 
 187   21:30   0.00   56.1    60    0.6   133     1.4   807.2    0.00 
 187   21:40   0.00   56.9    59    0.5   358     2.1   807.1    0.00 
 187   21:50   0.00   56.0    62    1.4   114     3.4   807.1    0.00 
 187   22:00   0.00   57.4    59    2.0   124     3.8   807.1    0.00 
 187   22:10   0.00   56.2    64    2.8   173     4.2   807.1    0.00 
 187   22:20   0.00   57.2    58    3.8   129     5.7   807.1    0.00 
 187   22:30   0.00   59.1    53    4.1   103     6.4   807.2    0.00 
 187   22:40   0.00   58.7    54    4.4    97     5.8   807.1    0.00 
 187   22:50   0.00   58.3    56    3.7   167     6.1   807.1    0.00 
 187   23:00   0.00   54.7    66    1.8   174     3.7   807.2    0.00 
 187   23:10   0.00   52.9    70    3.5   171     4.6   807.2    0.00 
 187   23:20   0.00   53.9    68    1.6   186     2.8   807.1    0.00 
 187   23:30   0.00   56.0    61    5.2   128     8.3   806.9    0.00 
 187   23:40   0.00   58.4    55    5.2   124     7.2   806.9    0.00 
 187   23:50   0.00   58.8    54    4.8   122     6.3   806.9    0.00 
 188    0:00   0.00   57.7    59    2.0   193     4.1   806.8    0.00 
 188    0:10   0.00   55.2    65    2.0   154     3.2   806.8    0.00 
 188    0:20   0.00   54.0    67    3.3   162     4.5   806.7    0.00 
 188    0:30   0.00   53.5    69    3.3   169     5.0   806.6    0.00 
 188    0:40   0.00   52.9    71    4.2   171     5.8   806.5    0.00 
 188    0:50   0.00   52.6    73    4.0   172     5.1   806.4    0.00 
 188    1:00   0.00   52.6    73    3.5   173     4.5   806.4    0.00 
 188    1:10   0.00   53.2    70    4.1   171     5.0   806.3    0.00 
 188    1:20   0.00   53.0    70    3.8   170     5.0   806.3    0.00 
 188    1:30   0.00   53.7    68    5.5   154     8.8   806.3    0.00 
 188    1:40   0.00   55.6    62    6.1   131     8.8   806.1    0.00 
 188    1:50   100.00  99999.0   99999  99999.0   99999   99999.0   99999.0   99999.00 
 188    2:00   0.00   52.9    70    0.9   168     2.7   806.1    0.00 
 188    2:10   0.00   51.5    72    0.5   215     2.1   806.2    0.00 
 188    2:20   0.00   50.2    74    1.2   171     2.1   806.3    0.00 
 188    2:30   0.00   49.9    74    3.2   157     4.7   806.4    0.00 
 188    2:40   0.00   50.2    74    3.5   153     4.8   806.3    0.00 
 188    2:50   0.00   50.1    72    2.8   103     5.6   806.4    0.00 
 188    3:00   0.00   49.6    74    3.6   161     4.5   806.3    0.00 
 188    3:10   0.00   49.1    74    0.8   349     2.6   806.5    0.00 
 188    3:20   0.00   49.3    73    4.8   104     6.7   806.3    0.00 
 188    3:30   0.00   49.4    73    6.4    89     8.0   806.3    0.00 
 188    3:40   0.00   49.8    73    5.6    96     7.7   806.2    0.00 
 188    3:50   0.00   49.9    72    4.4    91     5.8   806.2    0.00 
 188    4:00   0.00   48.6    75    1.8   166     3.4   806.1    0.00 
 188    4:10   0.00   46.2    79    2.2   177     4.4   806.1    0.00 
 188    4:20   0.00   44.6    82    1.2   212     3.4   806.1    0.00 
 188    4:30   0.00   43.0    85    1.9   165     2.8   806.1    0.00 
 188    4:40   0.01   42.6    87    2.1   182     2.7   806.2    0.00 
 188    4:50   0.01   43.3    88    1.2   195     2.8   806.2    0.00 
 188    5:00   0.01   44.0    87    2.1   170     3.3   806.3    0.00 
 188    5:10   0.02   44.2    86    2.5   166     7.3   806.4    0.00 
 188    5:20   0.02   45.4    86    4.8   171     6.9   806.4    0.00 
 188    5:30   0.06   47.1    82    3.9   137     5.6   806.5    0.00 
 188    5:40   0.15   52.1    71    4.6   143     6.0   806.6    0.00 
 188    5:50   0.12   54.6    66    3.5   172     7.3   806.6    0.00 
 188    6:00   0.07   54.7    67    0.3   181     1.1   806.6    0.00 
 188    6:10   0.10   54.2    69    0.2   208     1.2   806.6    0.00 
 188    6:20   0.25   56.0    68    0.3   144     1.5   806.6    0.00 
 188    6:30   0.34   60.3    62    2.2   192     3.9   806.5    0.00 
 188    6:40   0.42   62.0    57    4.4   187     5.9   806.5    0.00 
 188    6:50   0.46   63.3    55    4.8   187     7.4   806.5    0.00 
 188    7:00   0.55   64.6    52    4.8   188     6.9   806.4    0.00 
 188    7:10   0.54   66.8    48    3.4   194     5.8   806.5    0.00 
 188    7:20   0.56   68.0    44    2.4   196     4.2   806.4    0.00 
 188    7:30   0.52   69.0    42    1.8   218     4.1   806.5    0.00 
 188    7:40   0.48   69.3    40    1.1   326     3.1   806.6    0.00 
 188    7:50   0.59   69.7    39    2.1   302     4.4   806.6    0.00 
 188    8:00   0.59   70.0    38    2.5   359     5.2   806.5    0.00 
 188    8:10   0.62   71.1    36    2.0   356     5.7   806.5    0.00 
 188    8:20   0.61   71.9    36    2.4   315     4.6   806.4    0.00 
 188    8:30   0.60   71.4    35    2.8   338     6.1   806.3    0.00 
 188    8:40   0.68   72.7    35    2.9   349     7.3   806.3    0.00 
 188    8:50   0.75   72.8    34    1.9   247     4.6   806.1    0.00 
 188    9:00   0.77   75.2    32    2.1   249     5.3   805.9    0.00 
 188    9:10   0.77   74.9    30    1.9    48     5.3   805.9    0.00 
 188    9:20   0.77   74.8    29    3.2   342     4.8   805.9    0.00 
 188    9:30   0.83   75.6    30    2.7   224     5.7   805.9    0.00 
 188    9:40   0.86   77.9    26    1.6   206     4.5   805.8    0.00 
 188    9:50   0.89   76.7    26    4.1   348     9.2   805.6    0.00 
 188   10:00   0.94   77.1    26    3.3    45     9.2   805.5    0.00 
 188   10:10   0.98   78.1    25    2.3   271     6.6   805.4    0.00 
 188   10:20   1.03   78.9    26    2.5   262     7.5   805.2    0.00 
 188   10:30   1.10   78.5    27    4.2   261     6.9   805.1    0.00 
 188   10:40   1.12   79.8    26    4.0   262     8.0   805.0    0.00 
 188   10:50   0.60   79.2    25    4.5   334     8.6   804.9    0.00 

Return to Steptoe Valley WMA graphs page.


Western Regional Climate Center,wrcc@dri.edu